createdAt,value
2018-08-25T00:02:11.433Z,1.43
2018-08-25T00:04:40.193Z,1.60
2018-08-25T00:07:08.911Z,1.37
2018-08-25T00:09:37.374Z,1.60
2018-08-25T00:12:06.374Z,1.30
2018-08-25T00:14:35.238Z,1.37
2018-08-25T00:17:04.145Z,1.10
2018-08-25T00:19:32.812Z,1.82
2018-08-25T00:22:01.367Z,1.40
2018-08-25T00:24:30.125Z,1.25
2018-08-25T00:26:58.258Z,1.50
2018-08-25T00:29:26.837Z,1.67
2018-08-25T00:31:55.022Z,1.30
2018-08-25T00:34:24.018Z,1.93
2018-08-25T00:36:52.142Z,1.30
2018-08-25T00:39:20.963Z,1.67
2018-08-25T00:41:49.161Z,1.77
2018-08-25T00:44:17.860Z,1.67
2018-08-25T00:46:46.520Z,1.50
2018-08-25T00:49:15.366Z,2.70
2018-08-25T00:51:44.369Z,1.20
2018-08-25T00:54:13.510Z,1.50
2018-08-25T00:56:42.163Z,1.13
2018-08-25T00:59:10.668Z,1.20
2018-08-25T01:01:39.358Z,1.40
2018-08-25T01:04:08.105Z,1.70
2018-08-25T01:06:36.890Z,1.30
2018-08-25T01:09:07.796Z,1.80
2018-08-25T01:11:36.006Z,1.40
2018-08-25T01:14:04.439Z,1.30
2018-08-25T01:16:33.277Z,1.35
2018-08-25T01:19:01.491Z,1.00
2018-08-25T01:21:30.042Z,1.43
2018-08-25T01:23:58.590Z,1.30
2018-08-25T01:26:27.214Z,1.70
2018-08-25T01:28:55.946Z,1.45
2018-08-25T01:31:27.586Z,1.07
2018-08-25T01:33:57.258Z,1.47
2018-08-25T01:36:26.011Z,1.10
2018-08-25T01:38:54.504Z,1.17
2018-08-25T01:41:23.809Z,1.30
2018-08-25T01:43:51.946Z,1.20
2018-08-25T01:46:20.114Z,1.57
2018-08-25T01:48:49.909Z,1.75
2018-08-25T01:51:18.361Z,0.90
2018-08-25T01:53:46.825Z,1.33
2018-08-25T01:56:15.053Z,1.47
2018-08-25T01:58:43.526Z,1.15
2018-08-25T02:01:12.134Z,1.40
2018-08-25T02:03:40.589Z,1.40
2018-08-25T02:06:09.272Z,1.60
2018-08-25T02:08:38.265Z,1.40
2018-08-25T02:11:06.982Z,1.20
2018-08-25T02:13:35.423Z,1.57
2018-08-25T02:16:04.573Z,1.50
2018-08-25T02:18:33.277Z,1.50
2018-08-25T02:21:01.393Z,1.73
2018-08-25T02:23:30.185Z,1.65
2018-08-25T02:25:59.150Z,1.40
2018-08-25T02:28:27.601Z,1.80
2018-08-25T02:30:56.290Z,1.43
2018-08-25T02:33:24.747Z,1.50
2018-08-25T02:35:53.238Z,1.30
2018-08-25T02:38:21.346Z,1.43
2018-08-25T02:40:49.838Z,1.53
2018-08-25T02:43:18.430Z,1.70
2018-08-25T02:45:46.906Z,1.67
2018-08-25T02:48:15.450Z,1.57
2018-08-25T02:50:43.963Z,1.98
2018-08-25T02:53:12.645Z,1.63
2018-08-25T02:55:40.970Z,1.57
2018-08-25T02:58:09.807Z,1.90
2018-08-25T03:00:38.402Z,2.10
2018-08-25T03:03:07.597Z,1.75
2018-08-25T03:05:36.359Z,1.50
2018-08-25T03:08:04.807Z,1.98
2018-08-25T03:10:33.254Z,1.80
2018-08-25T03:13:01.711Z,1.93
2018-08-25T03:15:30.116Z,1.77
2018-08-25T03:17:58.222Z,2.10
2018-08-25T03:20:26.397Z,1.80
2018-08-25T03:22:54.715Z,2.17
2018-08-25T03:25:29.301Z,1.80
2018-08-25T03:28:03.025Z,2.03
2018-08-25T03:30:36.666Z,1.70
2018-08-25T03:33:10.804Z,2.00
2018-08-25T03:35:44.787Z,1.80
2018-08-25T03:38:19.718Z,2.17
2018-08-25T03:40:53.226Z,1.73
2018-08-25T03:43:27.025Z,2.00
2018-08-25T03:45:55.774Z,2.10
2018-08-25T03:48:24.479Z,1.80
2018-08-25T03:50:53.174Z,1.93
2018-08-25T03:53:21.522Z,2.30
2018-08-25T03:55:49.970Z,1.67
2018-08-25T03:58:18.750Z,2.00
2018-08-25T04:00:47.114Z,2.10
2018-08-25T04:03:15.378Z,2.23
2018-08-25T04:05:44.062Z,1.80
2018-08-25T04:08:12.234Z,2.17
2018-08-25T04:10:40.998Z,2.43
2018-08-25T04:13:09.437Z,2.10
2018-08-25T04:15:37.858Z,2.73
2018-08-25T04:18:06.717Z,2.20
2018-08-25T04:20:35.467Z,2.22
2018-08-25T04:23:04.183Z,1.70
2018-08-25T04:25:32.311Z,2.50
2018-08-25T04:28:00.433Z,1.83
2018-08-25T04:30:35.003Z,2.10
2018-08-25T04:33:08.758Z,2.17
2018-08-25T04:35:44.668Z,1.95
2018-08-25T04:38:18.489Z,2.30
2018-08-25T04:40:53.145Z,1.87
2018-08-25T04:43:27.134Z,2.30
2018-08-25T04:46:01.254Z,1.83
2018-08-25T04:48:35.662Z,1.90
2018-08-25T04:51:09.754Z,1.73
2018-08-25T04:53:43.530Z,1.87
2018-08-25T04:56:17.733Z,1.70
2018-08-25T04:58:52.573Z,1.40
2018-08-25T05:01:27.439Z,2.00
2018-08-25T05:04:01.182Z,2.03
2018-08-25T05:06:35.342Z,1.67
2018-08-25T05:09:08.817Z,1.73
2018-08-25T05:11:43.770Z,1.40
2018-08-25T05:14:18.378Z,1.57
2018-08-25T05:16:52.367Z,1.60
2018-08-25T05:19:20.942Z,1.80
2018-08-25T05:21:49.439Z,3.43
2018-08-25T05:24:17.732Z,1.50
2018-08-25T05:26:46.101Z,2.08
2018-08-25T05:29:14.342Z,1.57
2018-08-25T05:31:42.802Z,2.10
2018-08-25T05:34:11.242Z,1.50
2018-08-25T05:36:39.438Z,1.90
2018-08-25T05:39:08.384Z,1.90
2018-08-25T05:41:36.845Z,1.93
2018-08-25T05:44:05.900Z,1.92
2018-08-25T05:46:34.638Z,2.10
2018-08-25T05:49:03.486Z,2.20
2018-08-25T05:51:31.966Z,2.10
2018-08-25T05:54:00.714Z,2.05
2018-08-25T05:56:29.174Z,2.30
2018-08-25T05:58:57.858Z,2.00
2018-08-25T06:01:26.834Z,1.90
2018-08-25T06:03:55.845Z,2.10
2018-08-25T06:06:24.428Z,1.60
2018-08-25T06:08:53.255Z,2.57
2018-08-25T06:11:21.621Z,2.47
2018-08-25T06:13:49.769Z,2.10
2018-08-25T06:16:18.245Z,2.43
2018-08-25T06:18:46.923Z,3.13
2018-08-25T06:21:15.361Z,2.27
2018-08-25T06:23:43.601Z,2.20
2018-08-25T06:26:12.027Z,2.10
2018-08-25T06:28:40.786Z,2.10
2018-08-25T06:31:09.263Z,2.07
2018-08-25T06:33:37.863Z,2.37
2018-08-25T06:36:06.703Z,1.65
2018-08-25T06:38:35.594Z,1.60
2018-08-25T06:41:04.118Z,1.57
2018-08-25T06:43:32.890Z,1.67
2018-08-25T06:46:07.726Z,1.80
2018-08-25T06:48:37.675Z,1.10
2018-08-25T06:51:06.310Z,1.70
2018-08-25T06:53:34.818Z,1.53
2018-08-25T06:56:03.498Z,1.77
2018-08-25T06:58:32.056Z,1.60
2018-08-25T07:01:00.471Z,1.55
2018-08-25T07:03:28.757Z,2.00
2018-08-25T07:05:57.245Z,1.40
2018-08-25T07:08:26.294Z,1.73
2018-08-25T07:10:54.773Z,1.40
2018-08-25T07:13:22.907Z,2.30
2018-08-25T07:15:51.870Z,1.70
2018-08-25T07:18:19.990Z,2.40
2018-08-25T07:20:48.570Z,2.00
2018-08-25T07:23:16.685Z,2.10
2018-08-25T07:25:45.138Z,2.10
2018-08-25T07:28:13.539Z,1.80
2018-08-25T07:30:47.206Z,2.53
2018-08-25T07:33:20.918Z,2.53
2018-08-25T07:35:54.511Z,2.33
2018-08-25T07:38:28.446Z,2.90
2018-08-25T07:41:02.229Z,3.93
2018-08-25T07:43:36.384Z,3.03
2018-08-25T07:46:11.087Z,3.50
2018-08-25T07:48:45.260Z,4.42
2018-08-25T07:51:19.830Z,4.30
2018-08-25T07:53:53.611Z,4.00
2018-08-25T07:56:27.325Z,4.27
2018-08-25T07:59:01.385Z,5.07
2018-08-25T08:01:48.762Z,4.43
2018-08-25T08:04:35.339Z,5.07
2018-08-25T08:07:22.912Z,5.03
2018-08-25T08:10:09.385Z,5.03
2018-08-25T08:12:56.022Z,4.47
2018-08-25T08:15:36.699Z,3.03
2018-08-25T08:18:17.316Z,3.80
2018-08-25T08:20:58.107Z,3.20
2018-08-25T08:23:39.555Z,2.70
2018-08-25T08:26:20.446Z,2.97
2018-08-25T08:29:01.725Z,2.60
2018-08-25T08:31:42.546Z,2.50
2018-08-25T08:34:11.103Z,2.90
2018-08-25T08:36:40.002Z,2.90
2018-08-25T08:39:09.354Z,2.50
2018-08-25T08:41:38.839Z,1.72
2018-08-25T08:44:07.082Z,2.30
2018-08-25T08:46:36.499Z,1.77
2018-08-25T08:49:06.266Z,1.50
2018-08-25T08:51:36.546Z,1.10
2018-08-25T08:54:05.172Z,1.00
2018-08-25T08:56:34.319Z,1.03
2018-08-25T08:59:03.203Z,0.90
2018-08-25T09:01:32.436Z,0.90
2018-08-25T09:04:01.457Z,0.80
2018-08-25T09:06:29.859Z,0.53
2018-08-25T09:08:58.281Z,0.90
2018-08-25T09:11:27.072Z,0.90
2018-08-25T09:13:55.635Z,0.63
2018-08-25T09:16:24.356Z,0.60
2018-08-25T09:18:52.808Z,0.47
2018-08-25T09:21:21.261Z,0.60
2018-08-25T09:23:49.747Z,0.87
2018-08-25T09:26:18.050Z,0.50
2018-08-25T09:28:46.222Z,0.60
2018-08-25T09:31:15.895Z,0.60
2018-08-25T09:33:45.147Z,0.72
2018-08-25T09:36:13.641Z,0.70
2018-08-25T09:38:41.938Z,1.03
2018-08-25T09:41:10.159Z,0.83
2018-08-25T09:43:38.862Z,0.77
2018-08-25T09:46:07.142Z,0.90
2018-08-25T09:48:35.286Z,1.00
2018-08-25T09:51:04.882Z,0.95
2018-08-25T09:53:33.364Z,1.10
2018-08-25T09:56:02.420Z,1.00
2018-08-25T09:58:31.177Z,0.80
2018-08-25T10:01:04.954Z,0.80
2018-08-25T10:03:34.478Z,0.93
2018-08-25T10:06:04.591Z,0.60
2018-08-25T10:08:33.596Z,0.73
2018-08-25T10:11:02.035Z,0.60
2018-08-25T10:13:30.347Z,0.80
2018-08-25T10:15:58.891Z,0.60
2018-08-25T10:18:27.411Z,0.67
2018-08-25T10:20:55.892Z,0.70
2018-08-25T10:23:24.603Z,0.77
2018-08-25T10:25:53.254Z,1.07
2018-08-25T10:28:21.708Z,0.70
2018-08-25T10:30:50.498Z,0.60
2018-08-25T10:33:18.995Z,0.60
2018-08-25T10:35:47.797Z,0.70
2018-08-25T10:38:16.132Z,1.10
2018-08-25T10:40:44.722Z,1.20
2018-08-25T10:43:13.298Z,1.33
2018-08-25T10:45:41.495Z,1.10
2018-08-25T10:48:10.277Z,1.10
2018-08-25T10:50:38.628Z,1.00
2018-08-25T10:53:07.028Z,1.32
2018-08-25T10:55:35.508Z,1.10
2018-08-25T10:58:04.630Z,0.70
2018-08-25T11:00:33.480Z,0.90
2018-08-25T11:03:02.076Z,0.80
2018-08-25T11:05:30.561Z,0.80
2018-08-25T11:07:59.004Z,0.90
2018-08-25T11:10:27.690Z,0.97
2018-08-25T11:12:56.442Z,0.90
2018-08-25T11:15:24.889Z,0.80
2018-08-25T11:17:53.098Z,0.73
2018-08-25T11:20:21.830Z,0.70
2018-08-25T11:22:50.609Z,0.80
2018-08-25T11:25:19.422Z,0.70
2018-08-25T11:27:47.894Z,0.77
2018-08-25T11:30:16.550Z,0.80
2018-08-25T11:32:45.008Z,1.10
2018-08-25T11:35:13.118Z,0.70
2018-08-25T11:37:41.649Z,0.80
2018-08-25T11:40:10.474Z,0.90
2018-08-25T11:42:38.934Z,1.20
2018-08-25T11:45:07.680Z,1.03
2018-08-25T11:47:36.137Z,1.10
2018-08-25T11:50:05.214Z,1.20
2018-08-25T11:52:33.686Z,1.30
2018-08-25T11:55:02.218Z,1.20
2018-08-25T11:57:30.679Z,1.23
2018-08-25T11:59:59.414Z,1.30
2018-08-25T12:02:27.983Z,1.53
2018-08-25T12:04:56.841Z,1.23
2018-08-25T12:07:25.702Z,1.25
2018-08-25T12:09:54.507Z,2.10
2018-08-25T12:12:23.127Z,1.47
2018-08-25T12:14:51.246Z,1.47
2018-08-25T12:17:19.694Z,1.40
2018-08-25T12:19:48.298Z,1.30
2018-08-25T12:22:16.919Z,1.23
2018-08-25T12:24:45.603Z,0.97
2018-08-25T12:27:14.271Z,1.40
2018-08-25T12:29:43.210Z,1.37
2018-08-25T12:32:11.854Z,1.50
2018-08-25T12:34:52.422Z,1.50
2018-08-25T12:37:20.924Z,1.30
2018-08-25T12:39:49.365Z,1.50
2018-08-25T12:42:17.754Z,1.30
2018-08-25T12:44:46.446Z,1.43
2018-08-25T12:47:15.494Z,1.13
2018-08-25T12:49:43.810Z,1.43
2018-08-25T12:52:12.530Z,1.07
2018-08-25T12:54:40.846Z,0.77
2018-08-25T12:57:09.318Z,0.80
2018-08-25T12:59:37.973Z,0.70
2018-08-25T13:02:06.474Z,0.77
2018-08-25T13:04:34.837Z,0.90
2018-08-25T13:07:03.765Z,0.93
2018-08-25T13:09:32.222Z,0.90
2018-08-25T13:12:01.313Z,1.10
2018-08-25T13:14:30.035Z,0.70
2018-08-25T13:16:58.157Z,0.70
2018-08-25T13:19:26.337Z,0.63
2018-08-25T13:21:55.098Z,0.80
2018-08-25T13:24:23.878Z,0.60
2018-08-25T13:26:52.330Z,0.60
2018-08-25T13:29:21.070Z,0.43
2018-08-25T13:31:49.214Z,0.57
2018-08-25T13:34:17.678Z,0.78
2018-08-25T13:36:46.169Z,0.90
2018-08-25T13:39:14.300Z,0.60
2018-08-25T13:41:43.128Z,0.50
2018-08-25T13:44:13.097Z,0.73
2018-08-25T13:46:42.857Z,1.10
2018-08-25T13:49:11.351Z,0.80
2018-08-25T13:51:40.125Z,0.60
2018-08-25T13:54:08.657Z,0.70
2018-08-25T13:56:37.384Z,0.80
2018-08-25T13:59:05.910Z,0.87
2018-08-25T14:01:34.152Z,0.73
2018-08-25T14:04:03.033Z,0.90
2018-08-25T14:06:31.510Z,0.70
2018-08-25T14:09:12.592Z,1.00
2018-08-25T14:11:53.393Z,0.80
2018-08-25T14:14:22.115Z,1.23
2018-08-25T14:16:51.889Z,0.97
2018-08-25T14:19:20.591Z,0.83
2018-08-25T14:21:49.175Z,0.50
2018-08-25T14:24:17.310Z,0.77
2018-08-25T14:26:46.329Z,0.70
2018-08-25T14:29:14.722Z,0.80
2018-08-25T14:31:43.491Z,0.70
2018-08-25T14:34:12.152Z,1.30
2018-08-25T14:36:40.646Z,0.90
2018-08-25T14:39:10.670Z,1.00
2018-08-25T14:41:39.287Z,1.40
2018-08-25T14:44:08.522Z,1.40
2018-08-25T14:46:38.379Z,1.70
2018-08-25T14:49:06.690Z,1.20
2018-08-25T14:51:34.913Z,1.13
2018-08-25T14:54:03.590Z,1.20
2018-08-25T14:56:32.360Z,1.00
2018-08-25T14:59:00.506Z,1.00
2018-08-25T15:01:28.922Z,1.10
2018-08-25T15:03:57.666Z,0.97
2018-08-25T15:06:26.546Z,0.73
2018-08-25T15:08:55.090Z,0.90
2018-08-25T15:11:23.543Z,0.60
2018-08-25T15:13:52.074Z,0.70
2018-08-25T15:16:20.611Z,0.77
2018-08-25T15:18:49.057Z,0.53
2018-08-25T15:21:17.693Z,0.70
2018-08-25T15:23:46.279Z,0.97
2018-08-25T15:26:14.754Z,0.93
2018-08-25T15:28:43.481Z,0.50
2018-08-25T15:31:11.983Z,0.80
2018-08-25T15:33:40.846Z,0.60
2018-08-25T15:36:09.605Z,0.80
2018-08-25T15:38:38.262Z,0.70
2018-08-25T15:41:06.730Z,0.97
2018-08-25T15:43:35.411Z,1.17
2018-08-25T15:46:03.882Z,1.03
2018-08-25T15:48:32.506Z,0.73
2018-08-25T15:51:01.240Z,1.00
2018-08-25T15:53:29.987Z,0.80
2018-08-25T15:55:58.441Z,0.90
2018-08-25T15:58:27.046Z,1.03
2018-08-25T16:00:55.503Z,1.10
2018-08-25T16:03:23.627Z,0.90
2018-08-25T16:05:52.104Z,1.00
2018-08-25T16:08:20.770Z,1.67
2018-08-25T16:10:49.282Z,0.90
2018-08-25T16:13:17.421Z,1.30
2018-08-25T16:15:45.890Z,1.00
2018-08-25T16:18:14.129Z,0.93
2018-08-25T16:20:42.492Z,1.00
2018-08-25T16:23:10.610Z,0.90
2018-08-25T16:25:39.349Z,1.20
2018-08-25T16:28:08.415Z,0.80
2018-08-25T16:30:42.578Z,0.70
2018-08-25T16:33:17.082Z,0.82
2018-08-25T16:35:51.850Z,1.10
2018-08-25T16:38:20.881Z,0.80
2018-08-25T16:40:49.832Z,1.07
2018-08-25T16:43:18.538Z,0.80
2018-08-25T16:45:46.996Z,1.10
2018-08-25T16:48:15.105Z,0.80
2018-08-25T16:50:43.850Z,0.60
2018-08-25T16:53:12.606Z,0.70
2018-08-25T16:55:41.069Z,0.70
2018-08-25T16:58:09.459Z,0.73
2018-08-25T17:00:37.905Z,0.60
2018-08-25T17:03:06.251Z,1.23
2018-08-25T17:05:34.727Z,0.80
2018-08-25T17:08:03.584Z,0.80
2018-08-25T17:10:32.554Z,0.80
2018-08-25T17:13:01.238Z,1.13
2018-08-25T17:15:30.073Z,0.80
2018-08-25T17:17:58.545Z,0.70
2018-08-25T17:20:26.738Z,0.93
2018-08-25T17:22:55.244Z,0.83
2018-08-25T17:25:23.698Z,0.70
2018-08-25T17:27:51.840Z,1.20
2018-08-25T17:30:19.998Z,1.07
2018-08-25T17:32:48.430Z,1.40
2018-08-25T17:35:16.894Z,1.00
2018-08-25T17:37:45.323Z,1.37
2018-08-25T17:40:14.059Z,1.50
2018-08-25T17:42:42.367Z,1.10
2018-08-25T17:45:11.100Z,1.20
2018-08-25T17:47:39.803Z,1.20
2018-08-25T17:50:08.098Z,1.10
2018-08-25T17:52:36.897Z,1.30
2018-08-25T17:55:05.562Z,1.20
2018-08-25T17:57:33.928Z,1.30
2018-08-25T18:00:02.690Z,1.30
2018-08-25T18:02:31.318Z,1.00
2018-08-25T18:04:59.992Z,0.90
2018-08-25T18:07:28.735Z,1.00
2018-08-25T18:09:57.252Z,1.30
2018-08-25T18:12:25.728Z,0.90
2018-08-25T18:14:53.846Z,0.90
2018-08-25T18:17:24.507Z,1.00
2018-08-25T18:19:53.034Z,1.17
2018-08-25T18:22:21.474Z,0.80
2018-08-25T18:24:49.590Z,0.90
2018-08-25T18:27:18.025Z,0.80
2018-08-25T18:29:46.994Z,0.90
2018-08-25T18:32:15.759Z,1.00
2018-08-25T18:34:44.091Z,1.20
2018-08-25T18:37:13.160Z,1.10
2018-08-25T18:39:41.616Z,1.20
2018-08-25T18:42:10.504Z,0.93
2018-08-25T18:44:39.140Z,1.10
2018-08-25T18:47:08.086Z,1.10
2018-08-25T18:49:36.794Z,1.00
2018-08-25T18:52:05.083Z,0.87
2018-08-25T18:54:34.292Z,0.70
2018-08-25T18:57:03.052Z,0.73
2018-08-25T18:59:44.120Z,0.60
2018-08-25T19:02:14.117Z,0.50
2018-08-25T19:04:43.169Z,0.40
2018-08-25T19:07:12.153Z,0.70
2018-08-25T19:09:40.914Z,0.50
2018-08-25T19:12:09.420Z,0.50
2018-08-25T19:14:37.622Z,0.50
2018-08-25T19:17:06.368Z,0.60
2018-08-25T19:19:34.776Z,0.70
2018-08-25T19:22:03.674Z,0.50
2018-08-25T19:24:31.794Z,0.60
2018-08-25T19:27:00.274Z,0.60
2018-08-25T19:29:28.438Z,0.50
2018-08-25T19:31:57.150Z,0.53
2018-08-25T19:34:25.870Z,0.60
2018-08-25T19:36:54.327Z,1.00
2018-08-25T19:39:36.103Z,0.80
2018-08-25T19:42:04.582Z,0.73
2018-08-25T19:44:33.621Z,0.85
2018-08-25T19:47:02.466Z,0.80
2018-08-25T19:49:31.319Z,0.80
2018-08-25T19:51:59.879Z,0.87
2018-08-25T19:54:28.105Z,0.80
2018-08-25T19:59:31.288Z,1.10
2018-08-25T20:02:01.370Z,1.00
2018-08-25T20:04:29.865Z,1.00
2018-08-25T20:06:57.992Z,1.23
2018-08-25T20:09:26.999Z,1.30
2018-08-25T20:11:55.269Z,1.20
2018-08-25T20:14:24.741Z,1.20
2018-08-25T20:16:53.351Z,1.10
2018-08-25T20:19:21.549Z,1.20
2018-08-25T20:21:49.937Z,1.60
2018-08-25T20:24:18.169Z,1.20
2018-08-25T20:26:46.454Z,1.20
2018-08-25T20:32:09.115Z,1.27
2018-08-25T20:34:37.599Z,1.30
2018-08-25T20:37:06.485Z,1.07
2018-08-25T20:42:30.553Z,1.30
2018-08-25T20:44:59.573Z,1.67
2018-08-25T20:47:27.992Z,1.40
2018-08-25T20:49:57.357Z,1.30
2018-08-25T20:52:26.415Z,1.35
2018-08-25T20:54:54.900Z,1.20
2018-08-25T20:57:24.421Z,1.65
2018-08-25T20:59:52.577Z,1.33
2018-08-25T21:02:21.281Z,1.23
2018-08-25T21:04:49.893Z,1.30
2018-08-25T21:07:18.353Z,1.20
2018-08-25T21:09:46.526Z,1.10
2018-08-25T21:12:15.598Z,1.30
2018-08-25T21:14:43.737Z,1.37
2018-08-25T21:17:12.705Z,1.23
2018-08-25T21:19:41.726Z,1.10
2018-08-25T21:25:00.428Z,4.83
2018-08-25T21:27:28.579Z,1.42
2018-08-25T21:29:56.811Z,1.13
2018-08-25T21:32:25.493Z,1.20
2018-08-25T21:34:53.965Z,1.20
2018-08-25T21:37:22.416Z,1.30
2018-08-25T21:40:02.796Z,1.30
2018-08-25T21:42:44.083Z,1.20
2018-08-25T21:45:24.605Z,1.37
2018-08-25T21:48:05.412Z,1.20
2018-08-25T21:50:46.169Z,1.33
2018-08-25T21:53:26.944Z,1.43
2018-08-25T21:56:07.824Z,1.00
2018-08-25T21:58:48.506Z,1.22
2018-08-25T22:01:33.529Z,1.00
2018-08-25T22:04:15.256Z,1.00
2018-08-25T22:06:43.461Z,1.40
2018-08-25T22:09:12.465Z,1.43
2018-08-25T22:11:40.960Z,1.23
2018-08-25T22:14:09.333Z,1.20
2018-08-25T22:16:37.865Z,1.50
2018-08-25T22:19:06.622Z,1.10
2018-08-25T22:21:34.773Z,1.00
2018-08-25T22:24:03.578Z,1.37
2018-08-25T22:26:32.066Z,1.10
2018-08-25T22:29:00.457Z,1.60
2018-08-25T22:31:28.617Z,1.27
2018-08-25T22:33:57.102Z,1.53
2018-08-25T22:36:25.585Z,1.70
2018-08-25T22:38:54.074Z,1.50
2018-08-25T22:41:22.568Z,1.17
2018-08-25T22:43:50.837Z,1.30
2018-08-25T22:46:19.330Z,1.50
2018-08-25T22:48:47.482Z,1.53
2018-08-25T22:51:15.767Z,1.37
2018-08-25T22:53:44.386Z,1.27
2018-08-25T22:56:12.888Z,1.30
2018-08-25T22:58:41.683Z,1.30
2018-08-25T23:01:09.818Z,1.33
2018-08-25T23:03:38.537Z,1.47
2018-08-25T23:06:07.022Z,1.40
2018-08-25T23:08:35.697Z,1.65
2018-08-25T23:11:04.248Z,1.40
2018-08-25T23:13:32.536Z,2.13
2018-08-25T23:16:00.681Z,1.67
2018-08-25T23:18:29.069Z,1.55
2018-08-25T23:20:57.813Z,1.60
2018-08-25T23:23:25.965Z,1.87
2018-08-25T23:25:54.408Z,1.60
2018-08-25T23:28:22.561Z,1.60
2018-08-25T23:30:50.697Z,1.60
2018-08-25T23:33:18.854Z,1.93
2018-08-25T23:35:47.173Z,1.50
2018-08-25T23:38:15.869Z,1.50
2018-08-25T23:40:44.039Z,1.77
2018-08-25T23:43:12.762Z,1.73
2018-08-25T23:45:40.916Z,1.65
2018-08-25T23:48:09.231Z,1.73
2018-08-25T23:50:38.058Z,2.20
2018-08-25T23:53:06.484Z,2.12
2018-08-25T23:55:34.654Z,1.90
2018-08-25T23:58:02.804Z,1.63
